首页
METAR-TAF:

METAR-TAF

机场 :

奈洛比, 肯尼亚

纬度: 01-19S, 经度: 036-49E, 海拔: 1683米

当前天气观测

该预报发布于39分钟前的05:00 UTC
风速4节,风向东北
温度 19°C
湿度 88%
气压 1021 hPa
能见度10公里或以上
多云层高于2100英尺

METAR: HKNW 010500Z 05004KT 9999 BKN021 19/17 Q1021

时间: 08:39 (05:39 UTC)

预报

该预报发布于6小时和39分钟前的23:00 UTC
预报有效从01日的 00点(UTC)到 01日的 24点(UTC)
风速2节,风向多变
能见度10公里或以上
散云层高于1800英尺
短暂存在
从 01日的 00点(UTC)到 01日的 04点(UTC)
少量云层高于800英尺
多云层高于1500英尺
成为
从 01日的 08点(UTC)到 01日的 11点(UTC)
风速10节,风向东转东北
散云层高于2600英尺
成为
从 01日的 20点(UTC)到 01日的 23点(UTC)
风速2节,风向多变

TAF: HKNW 302300Z 0100/0124 VRB02KT 9999 SCT018 TEMPO 0100/0104 FEW008 BKN015 BECMG 0108/0111 07010KT SCT026 BECMG 0120/0123 VRB02KT

超过4000个机场的气象观测和天气预报(METAR&TAF报告)。

可查询的气象台以黄色和红色小点在地图上表示。

将鼠标移到小点上方,可查看气象台名称。

然后点击查看天气观测和预报。

如需切换地图:点击带黑十字的绿色按钮放大地图;点击带横线的绿色按钮缩小地图;或者点击绿色箭头查看邻近地区的地图。


METAR-TAF: